createdAt,value
2023-05-24T00:00:14.278Z,23.52
2023-05-24T00:02:44.661Z,23.83
2023-05-24T00:05:16.313Z,21.48
2023-05-24T00:07:46.514Z,24.20
2023-05-24T00:10:16.470Z,25.25
2023-05-24T00:12:46.459Z,22.80
2023-05-24T00:15:16.304Z,21.50
2023-05-24T00:17:46.731Z,21.95
2023-05-24T00:20:16.752Z,20.27
2023-05-24T00:22:47.740Z,20.30
2023-05-24T00:25:18.105Z,20.90
2023-05-24T00:27:48.786Z,20.63
2023-05-24T00:30:19.514Z,21.73
2023-05-24T00:32:50.778Z,19.73
2023-05-24T00:35:20.908Z,21.70
2023-05-24T00:37:50.795Z,21.65
2023-05-24T00:40:20.889Z,21.27
2023-05-24T00:42:52.953Z,22.23
2023-05-24T00:45:23.192Z,22.35
2023-05-24T00:47:53.199Z,22.95
2023-05-24T00:50:23.838Z,23.40
2023-05-24T00:52:54.144Z,22.33
2023-05-24T00:55:24.580Z,21.70
2023-05-24T00:57:56.542Z,21.38
2023-05-24T01:00:27.960Z,22.42
2023-05-24T01:02:58.856Z,22.30
2023-05-24T01:05:29.381Z,22.65
2023-05-24T01:08:16.533Z,22.02
2023-05-24T01:11:12.791Z,23.80
2023-05-24T01:14:22.813Z,24.13
2023-05-24T01:17:32.970Z,22.15
2023-05-24T01:20:10.521Z,23.67
2023-05-24T01:23:09.732Z,24.52
2023-05-24T01:26:19.180Z,24.55
2023-05-24T01:28:51.300Z,23.85
2023-05-24T01:31:23.577Z,25.20
2023-05-24T01:33:53.747Z,22.80
2023-05-24T01:36:23.473Z,25.95
2023-05-24T01:38:53.847Z,23.70
2023-05-24T01:41:49.503Z,26.20
2023-05-24T01:44:51.530Z,27.02
2023-05-24T01:47:51.267Z,30.15
2023-05-24T01:50:33.676Z,25.83
2023-05-24T01:53:09.479Z,23.45
2023-05-24T01:55:40.615Z,22.55
2023-05-24T01:58:13.159Z,23.55
2023-05-24T02:00:44.940Z,22.40
2023-05-24T02:03:17.671Z,21.90
2023-05-24T02:05:48.531Z,23.75
2023-05-24T02:08:18.435Z,21.00
2023-05-24T02:10:48.514Z,22.83
2023-05-24T02:13:19.765Z,23.35
2023-05-24T02:15:50.121Z,23.08
2023-05-24T02:18:23.340Z,22.25
2023-05-24T02:20:53.851Z,22.48
2023-05-24T02:23:25.168Z,22.70
2023-05-24T02:25:56.951Z,21.23
2023-05-24T02:28:27.020Z,21.98
2023-05-24T02:30:56.997Z,20.95
2023-05-24T02:33:27.541Z,21.00
2023-05-24T02:35:58.026Z,19.48
2023-05-24T02:38:28.494Z,21.50
2023-05-24T02:40:58.574Z,22.00
2023-05-24T02:43:28.665Z,20.88
2023-05-24T02:45:58.841Z,20.42
2023-05-24T02:48:29.002Z,22.20
2023-05-24T02:50:59.151Z,20.00
2023-05-24T02:53:29.205Z,19.95
2023-05-24T02:55:59.395Z,19.08
2023-05-24T02:58:33.316Z,19.35
2023-05-24T03:01:03.485Z,20.02
2023-05-24T03:03:33.413Z,21.60
2023-05-24T03:06:04.032Z,19.58
2023-05-24T03:08:36.354Z,21.63
2023-05-24T03:11:08.173Z,19.48
2023-05-24T03:13:38.161Z,19.52
2023-05-24T03:16:08.398Z,19.77
2023-05-24T03:18:38.584Z,18.83
2023-05-24T03:21:09.092Z,20.05
2023-05-24T03:23:39.296Z,19.60
2023-05-24T03:26:09.376Z,18.65
2023-05-24T03:28:39.503Z,19.17
2023-05-24T03:31:10.916Z,19.38
2023-05-24T03:33:41.659Z,20.27
2023-05-24T03:36:11.670Z,19.00
2023-05-24T03:38:41.991Z,20.23
2023-05-24T03:41:12.155Z,19.75
2023-05-24T03:43:42.154Z,20.33
2023-05-24T03:46:17.985Z,21.08
2023-05-24T03:48:48.202Z,21.15
2023-05-24T03:51:18.329Z,19.88
2023-05-24T03:53:48.402Z,18.85
2023-05-24T03:56:18.428Z,18.40
2023-05-24T03:58:48.415Z,18.23
2023-05-24T04:01:32.061Z,18.30
2023-05-24T04:04:04.735Z,19.05
2023-05-24T04:06:34.670Z,18.80
2023-05-24T04:09:07.214Z,18.90
2023-05-24T04:11:37.870Z,17.23
2023-05-24T04:14:07.891Z,17.58
2023-05-24T04:16:41.293Z,17.67
2023-05-24T04:19:11.303Z,17.27
2023-05-24T04:21:41.299Z,17.85
2023-05-24T04:24:11.601Z,17.73
2023-05-24T04:26:41.719Z,17.38
2023-05-24T04:29:11.725Z,17.52
2023-05-24T04:31:46.313Z,16.52
2023-05-24T04:34:16.751Z,16.02
2023-05-24T04:36:46.532Z,17.58
2023-05-24T04:39:17.390Z,15.80
2023-05-24T04:41:47.949Z,18.58
2023-05-24T04:44:17.794Z,17.40
2023-05-24T04:46:47.879Z,16.23
2023-05-24T04:49:17.834Z,15.82
2023-05-24T04:51:48.707Z,15.82
2023-05-24T04:54:19.771Z,15.73
2023-05-24T04:56:50.413Z,15.50
2023-05-24T04:59:20.407Z,14.93
2023-05-24T05:01:50.444Z,14.85
2023-05-24T05:04:20.734Z,16.20
2023-05-24T05:06:50.881Z,15.80
2023-05-24T05:09:21.320Z,16.08
2023-05-24T05:11:51.849Z,16.10
2023-05-24T05:14:21.746Z,15.82
2023-05-24T05:16:51.902Z,15.35
2023-05-24T05:19:22.436Z,16.67
2023-05-24T05:21:52.414Z,15.57
2023-05-24T05:24:23.374Z,15.60
2023-05-24T05:26:53.498Z,14.77
2023-05-24T05:29:24.453Z,14.43
2023-05-24T05:31:55.068Z,24.60
2023-05-24T05:34:24.997Z,31.95
2023-05-24T05:36:55.086Z,29.40
2023-05-24T05:39:24.881Z,17.27
2023-05-24T05:41:55.493Z,15.07
2023-05-24T05:44:25.442Z,15.55
2023-05-24T05:46:55.588Z,14.93
2023-05-24T05:49:25.531Z,15.20
2023-05-24T05:51:56.245Z,15.85
2023-05-24T05:54:26.434Z,14.77
2023-05-24T05:56:56.259Z,14.45
2023-05-24T05:59:26.476Z,14.90
2023-05-24T06:01:56.292Z,15.15
2023-05-24T06:04:26.473Z,15.18
2023-05-24T06:06:56.423Z,16.17
2023-05-24T06:09:26.675Z,15.88
2023-05-24T06:11:56.708Z,15.15
2023-05-24T06:14:26.692Z,16.00
2023-05-24T06:16:58.020Z,15.15
2023-05-24T06:19:29.739Z,14.45
2023-05-24T06:21:59.627Z,15.25
2023-05-24T06:24:30.134Z,15.35
2023-05-24T06:27:02.346Z,15.35
2023-05-24T06:29:33.364Z,15.95
2023-05-24T06:32:03.392Z,15.73
2023-05-24T06:34:34.100Z,15.13
2023-05-24T06:37:04.125Z,15.35
2023-05-24T06:39:33.902Z,16.52
2023-05-24T06:42:04.146Z,16.83
2023-05-24T06:44:39.080Z,15.48
2023-05-24T06:47:10.804Z,16.92
2023-05-24T06:49:40.810Z,16.10
2023-05-24T06:52:10.690Z,15.38
2023-05-24T06:54:44.513Z,14.90
2023-05-24T06:57:14.599Z,16.42
2023-05-24T06:59:44.422Z,15.10
2023-05-24T07:02:14.742Z,16.98
2023-05-24T07:04:44.573Z,17.10
2023-05-24T07:07:15.762Z,18.25
2023-05-24T07:09:46.036Z,16.00
2023-05-24T07:12:15.944Z,16.23
2023-05-24T07:14:45.913Z,15.65
2023-05-24T07:17:15.742Z,15.85
2023-05-24T07:19:45.903Z,13.57
2023-05-24T07:22:15.762Z,13.77
2023-05-24T07:24:45.812Z,13.07
2023-05-24T07:27:15.674Z,14.95
2023-05-24T07:29:48.111Z,13.98
2023-05-24T07:32:18.978Z,13.93
2023-05-24T07:34:49.699Z,14.88
2023-05-24T07:37:19.462Z,14.63
2023-05-24T07:39:50.172Z,14.73
2023-05-24T07:42:20.322Z,14.23
2023-05-24T07:44:50.277Z,17.27
2023-05-24T07:47:20.324Z,17.77
2023-05-24T07:49:50.213Z,17.35
2023-05-24T07:52:20.223Z,17.25
2023-05-24T07:54:49.993Z,16.10
2023-05-24T07:57:21.493Z,17.48
2023-05-24T07:59:51.517Z,17.20
2023-05-24T08:02:21.419Z,15.85
2023-05-24T08:04:51.649Z,14.23
2023-05-24T08:07:21.541Z,15.88
2023-05-24T08:09:51.864Z,16.27
2023-05-24T08:12:21.696Z,15.85
2023-05-24T08:14:51.881Z,15.93
2023-05-24T08:17:21.747Z,14.85
2023-05-24T08:19:51.912Z,14.75
2023-05-24T08:22:22.019Z,15.27
2023-05-24T08:24:53.083Z,14.50
2023-05-24T08:27:24.162Z,14.77
2023-05-24T08:29:57.128Z,15.05
2023-05-24T08:32:28.385Z,14.35
2023-05-24T08:35:14.768Z,15.93
2023-05-24T08:37:49.709Z,14.98
2023-05-24T08:40:20.004Z,14.57
2023-05-24T08:42:50.967Z,15.73
2023-05-24T08:45:23.346Z,15.65
2023-05-24T08:47:54.116Z,15.20
2023-05-24T08:50:25.222Z,16.35
2023-05-24T08:52:56.308Z,15.00
2023-05-24T08:55:26.610Z,17.00
2023-05-24T08:57:58.019Z,18.25
2023-05-24T09:00:28.484Z,18.13
2023-05-24T09:03:00.807Z,17.25
2023-05-24T09:05:32.178Z,17.75
2023-05-24T09:08:03.687Z,17.27
2023-05-24T09:10:49.310Z,18.90
2023-05-24T09:13:26.717Z,17.75
2023-05-24T09:15:57.032Z,18.25
2023-05-24T09:18:27.041Z,18.52
2023-05-24T09:20:57.242Z,17.88
2023-05-24T09:23:28.953Z,18.55
2023-05-24T09:26:00.296Z,18.58
2023-05-24T09:28:35.054Z,17.42
2023-05-24T09:31:08.132Z,18.75
2023-05-24T09:33:38.805Z,17.55
2023-05-24T09:36:10.242Z,18.30
2023-05-24T09:38:40.412Z,19.67
2023-05-24T09:41:12.505Z,18.77
2023-05-24T09:43:52.068Z,18.80
2023-05-24T09:46:23.209Z,17.30
2023-05-24T09:49:06.558Z,17.52
2023-05-24T09:51:40.542Z,16.85
2023-05-24T09:54:11.530Z,18.35
2023-05-24T09:56:42.424Z,17.45
2023-05-24T09:59:12.703Z,16.15
2023-05-24T10:01:42.633Z,17.92
2023-05-24T10:04:15.737Z,17.05
2023-05-24T10:06:46.399Z,17.67
2023-05-24T10:09:17.255Z,16.95
2023-05-24T10:11:48.129Z,16.25
2023-05-24T10:14:19.647Z,17.90
2023-05-24T10:16:49.857Z,17.90
2023-05-24T10:19:20.068Z,16.45
2023-05-24T10:21:51.980Z,17.42
2023-05-24T10:24:27.878Z,18.15
2023-05-24T10:27:00.531Z,15.82
2023-05-24T10:29:55.574Z,15.95
2023-05-24T10:32:26.781Z,15.50
2023-05-24T10:34:57.070Z,15.38
2023-05-24T10:37:28.639Z,15.70
2023-05-24T10:39:58.896Z,14.18
2023-05-24T10:42:29.043Z,15.20
2023-05-24T10:44:59.401Z,15.10
2023-05-24T10:47:32.284Z,14.25
2023-05-24T10:50:18.306Z,14.82
2023-05-24T10:52:49.028Z,15.45
2023-05-24T10:55:21.891Z,16.00
2023-05-24T10:57:52.029Z,16.05
2023-05-24T11:00:47.478Z,27.30
2023-05-24T11:03:25.120Z,19.17
2023-05-24T11:05:57.361Z,18.13
2023-05-24T11:08:37.215Z,23.38
2023-05-24T11:11:25.429Z,21.67
2023-05-24T11:14:03.260Z,20.30
2023-05-24T11:16:41.339Z,20.73
2023-05-24T11:19:26.934Z,20.08
2023-05-24T11:22:02.802Z,20.00
2023-05-24T11:24:34.240Z,26.67
2023-05-24T11:27:05.220Z,24.02
2023-05-24T11:29:42.020Z,22.27
2023-05-24T11:32:13.139Z,22.83
2023-05-24T11:34:46.720Z,24.00
2023-05-24T11:37:18.974Z,23.73
2023-05-24T11:39:56.486Z,26.45
2023-05-24T11:42:26.475Z,23.48
2023-05-24T11:44:57.498Z,24.63
2023-05-24T11:47:27.904Z,23.98
2023-05-24T11:49:57.817Z,24.20
2023-05-24T11:52:28.007Z,26.48
2023-05-24T11:54:57.930Z,26.02
2023-05-24T11:57:41.677Z,28.58
2023-05-24T12:00:18.504Z,29.67
2023-05-24T12:02:50.702Z,29.13
2023-05-24T12:05:21.901Z,31.30
2023-05-24T12:08:12.329Z,29.15
2023-05-24T12:10:45.129Z,31.25
2023-05-24T12:13:29.090Z,32.15
2023-05-24T12:15:59.743Z,31.67
2023-05-24T12:18:30.008Z,30.70
2023-05-24T12:21:00.201Z,30.90
2023-05-24T12:23:33.331Z,33.63
2023-05-24T12:26:05.690Z,41.60
2023-05-24T12:28:38.035Z,37.13
2023-05-24T12:31:09.174Z,37.63
2023-05-24T12:33:39.899Z,37.45
2023-05-24T12:36:10.376Z,35.53
2023-05-24T12:38:40.387Z,37.10
2023-05-24T12:41:14.005Z,35.75
2023-05-24T12:43:45.853Z,33.78
2023-05-24T12:46:16.485Z,32.67
2023-05-24T12:48:47.367Z,30.58
2023-05-24T12:51:18.032Z,32.70
2023-05-24T12:53:48.274Z,31.17
2023-05-24T12:56:18.279Z,32.42
2023-05-24T12:58:49.316Z,31.42
2023-05-24T13:01:19.662Z,32.40
2023-05-24T13:03:49.625Z,32.45
2023-05-24T13:06:19.960Z,31.10
2023-05-24T13:08:50.371Z,30.33
2023-05-24T13:11:20.988Z,31.50
2023-05-24T13:13:51.252Z,30.17
2023-05-24T13:16:21.422Z,32.22
2023-05-24T13:18:52.833Z,60.42
2023-05-24T13:21:23.984Z,33.70
2023-05-24T13:23:54.701Z,32.20
2023-05-24T13:26:25.865Z,33.28
2023-05-24T13:29:18.280Z,31.80
2023-05-24T13:31:47.011Z,32.50
2023-05-24T13:34:17.453Z,28.58
2023-05-24T13:36:47.956Z,25.10
2023-05-24T13:39:18.325Z,25.05
2023-05-24T13:41:52.512Z,23.00
2023-05-24T13:44:23.436Z,22.67
2023-05-24T13:46:53.868Z,21.55
2023-05-24T13:49:24.155Z,20.45
2023-05-24T13:51:57.991Z,19.88
2023-05-24T13:54:29.376Z,18.65
2023-05-24T13:56:59.635Z,18.45
2023-05-24T13:59:29.843Z,17.75
2023-05-24T14:01:59.973Z,17.95
2023-05-24T14:04:32.168Z,17.20
2023-05-24T14:07:03.056Z,15.80
2023-05-24T14:09:33.542Z,16.15
2023-05-24T14:12:04.877Z,15.98
2023-05-24T14:17:08.180Z,17.35
2023-05-24T14:19:38.574Z,19.02
2023-05-24T14:22:09.096Z,18.33
2023-05-24T14:24:39.128Z,16.75
2023-05-24T14:27:08.898Z,16.73
2023-05-24T14:29:39.028Z,16.27
2023-05-24T14:32:08.988Z,15.57
2023-05-24T14:34:39.111Z,16.17
2023-05-24T14:37:09.062Z,16.67
2023-05-24T14:39:39.449Z,17.98
2023-05-24T14:42:10.068Z,18.45
2023-05-24T14:44:40.375Z,21.65
2023-05-24T14:47:10.217Z,20.83
2023-05-24T14:49:40.192Z,19.48
2023-05-24T14:52:10.018Z,19.42
2023-05-24T14:54:40.123Z,20.13
2023-05-24T14:57:10.360Z,19.55
2023-05-24T14:59:40.499Z,19.77
2023-05-24T15:02:10.354Z,18.75
2023-05-24T15:04:41.821Z,20.05
2023-05-24T15:07:12.032Z,18.67
2023-05-24T15:09:41.820Z,19.20
2023-05-24T15:12:11.846Z,18.55
2023-05-24T15:14:41.647Z,35.72
2023-05-24T15:17:12.969Z,29.77
2023-05-24T15:19:43.365Z,19.67
2023-05-24T15:22:13.412Z,19.65
2023-05-24T15:24:43.458Z,19.30
2023-05-24T15:27:13.410Z,19.30
2023-05-24T15:29:45.196Z,18.52
2023-05-24T15:32:15.917Z,18.77
2023-05-24T15:34:46.125Z,19.23
2023-05-24T15:37:15.989Z,17.48
2023-05-24T15:39:46.000Z,17.10
2023-05-24T15:42:17.537Z,17.85
2023-05-24T15:44:48.007Z,18.80
2023-05-24T15:47:20.391Z,15.05
2023-05-24T15:49:52.771Z,12.48
2023-05-24T15:52:22.706Z,13.98
2023-05-24T15:54:52.756Z,13.18
2023-05-24T15:57:22.620Z,13.00
2023-05-24T15:59:52.922Z,10.93
2023-05-24T16:02:22.717Z,11.00
2023-05-24T16:04:57.009Z,10.52
2023-05-24T16:07:28.079Z,8.95
2023-05-24T16:09:58.090Z,9.20
2023-05-24T16:12:28.172Z,8.75
2023-05-24T16:14:59.435Z,8.70
2023-05-24T16:17:29.699Z,9.02
2023-05-24T16:20:00.748Z,9.02
2023-05-24T16:22:30.983Z,9.20
2023-05-24T16:25:00.882Z,11.23
2023-05-24T16:27:30.873Z,10.00
2023-05-24T16:30:00.667Z,10.82
2023-05-24T16:32:31.032Z,10.32
2023-05-24T16:35:00.936Z,10.40
2023-05-24T16:37:31.089Z,10.38
2023-05-24T16:40:01.128Z,10.30
2023-05-24T16:42:31.195Z,10.82
2023-05-24T16:45:01.216Z,11.35
2023-05-24T16:47:31.551Z,9.98
2023-05-24T16:50:01.457Z,10.48
2023-05-24T16:52:31.401Z,10.98
2023-05-24T16:55:01.296Z,11.15
2023-05-24T16:57:31.447Z,11.05
2023-05-24T17:00:01.253Z,10.57
2023-05-24T17:02:31.414Z,10.57
2023-05-24T17:05:01.322Z,10.55
2023-05-24T17:07:31.789Z,10.95
2023-05-24T17:10:01.914Z,11.57
2023-05-24T17:12:32.271Z,12.63
2023-05-24T17:15:02.166Z,12.68
2023-05-24T17:17:32.142Z,12.15
2023-05-24T17:20:02.553Z,11.63
2023-05-24T17:22:32.858Z,11.93
2023-05-24T17:25:02.676Z,12.75
2023-05-24T17:27:33.088Z,11.02
2023-05-24T17:30:03.207Z,11.55
2023-05-24T17:32:33.037Z,10.52
2023-05-24T17:35:03.025Z,10.20
2023-05-24T17:37:32.890Z,10.13
2023-05-24T17:40:03.215Z,10.55
2023-05-24T17:42:33.566Z,10.68
2023-05-24T17:45:03.554Z,9.73
2023-05-24T17:47:33.431Z,10.85
2023-05-24T17:50:03.676Z,11.52
2023-05-24T17:52:33.537Z,10.07
2023-05-24T17:55:04.344Z,11.55
2023-05-24T17:57:34.576Z,11.27
2023-05-24T18:00:04.504Z,10.02
2023-05-24T18:02:34.689Z,10.07
2023-05-24T18:05:04.932Z,10.98
2023-05-24T18:07:35.172Z,10.48
2023-05-24T18:10:06.886Z,10.40
2023-05-24T18:12:37.095Z,10.55
2023-05-24T18:15:07.915Z,9.43
2023-05-24T18:17:38.559Z,10.85
2023-05-24T18:20:09.468Z,10.70
2023-05-24T18:22:41.238Z,11.05
2023-05-24T18:25:11.859Z,11.35
2023-05-24T18:27:41.686Z,11.05
2023-05-24T18:30:12.571Z,11.88
2023-05-24T18:32:52.073Z,11.30
2023-05-24T18:35:26.613Z,11.10
2023-05-24T18:37:56.533Z,11.32
2023-05-24T18:40:26.987Z,11.50
2023-05-24T18:42:57.934Z,10.75
2023-05-24T18:45:27.695Z,11.15
2023-05-24T18:47:57.806Z,11.68
2023-05-24T18:50:27.646Z,11.40
2023-05-24T18:52:57.851Z,11.38
2023-05-24T18:55:27.768Z,12.23
2023-05-24T18:57:57.792Z,10.80
2023-05-24T19:00:27.621Z,11.80
2023-05-24T19:02:57.986Z,11.15
2023-05-24T19:05:27.889Z,11.80
2023-05-24T19:07:59.105Z,12.30
2023-05-24T19:10:29.108Z,10.95
2023-05-24T19:12:59.977Z,11.50
2023-05-24T19:15:30.292Z,12.52
2023-05-24T19:18:00.274Z,13.95
2023-05-24T19:20:30.322Z,12.23
2023-05-24T19:23:00.663Z,12.63
2023-05-24T19:25:32.655Z,12.77
2023-05-24T19:28:02.568Z,12.55
2023-05-24T19:30:32.371Z,12.65
2023-05-24T19:33:02.521Z,12.25
2023-05-24T19:35:32.330Z,12.07
2023-05-24T19:38:02.947Z,21.80
2023-05-24T19:40:33.022Z,13.00
2023-05-24T19:43:04.089Z,13.70
2023-05-24T19:45:34.139Z,12.73
2023-05-24T19:48:04.215Z,11.68
2023-05-24T19:50:34.426Z,11.43
2023-05-24T19:53:04.501Z,11.75
2023-05-24T19:55:34.437Z,11.95
2023-05-24T19:58:04.385Z,12.15
2023-05-24T20:00:35.263Z,12.90
2023-05-24T20:03:05.443Z,12.02
2023-05-24T20:05:35.373Z,11.95
2023-05-24T20:08:05.472Z,11.18
2023-05-24T20:10:37.801Z,11.82
2023-05-24T20:13:08.369Z,12.20
2023-05-24T20:15:38.100Z,12.65
2023-05-24T20:18:08.209Z,11.60
2023-05-24T20:20:38.959Z,17.00
2023-05-24T20:23:09.136Z,11.95
2023-05-24T20:25:39.166Z,11.60
2023-05-24T20:28:18.251Z,10.98
2023-05-24T20:30:56.022Z,10.00
2023-05-24T20:33:25.800Z,11.20
2023-05-24T20:35:55.912Z,10.60
2023-05-24T20:38:25.844Z,10.48
2023-05-24T20:40:56.090Z,10.18
2023-05-24T20:43:26.510Z,11.13
2023-05-24T20:45:56.820Z,11.70
2023-05-24T20:48:27.076Z,11.15
2023-05-24T20:50:57.398Z,11.40
2023-05-24T20:53:27.337Z,12.23
2023-05-24T20:55:58.176Z,11.45
2023-05-24T20:58:28.317Z,11.23
2023-05-24T21:00:58.273Z,11.98
2023-05-24T21:03:28.566Z,40.70
2023-05-24T21:05:58.446Z,39.33
2023-05-24T21:08:29.226Z,37.88
2023-05-24T21:10:59.006Z,12.20
2023-05-24T21:13:29.795Z,11.85
2023-05-24T21:15:59.577Z,12.18
2023-05-24T21:18:29.698Z,11.82
2023-05-24T21:20:59.407Z,12.15
2023-05-24T21:23:29.332Z,11.55
2023-05-24T21:25:59.153Z,11.50
2023-05-24T21:28:29.290Z,12.07
2023-05-24T21:30:59.060Z,12.75
2023-05-24T21:33:29.176Z,13.15
2023-05-24T21:36:00.011Z,12.25
2023-05-24T21:38:32.564Z,11.85
2023-05-24T21:41:02.731Z,12.20
2023-05-24T21:43:33.525Z,11.55
2023-05-24T21:46:03.622Z,12.10
2023-05-24T21:48:33.368Z,12.02
2023-05-24T21:51:03.286Z,13.73
2023-05-24T21:53:33.065Z,12.95
2023-05-24T21:56:04.183Z,12.27
2023-05-24T21:58:34.050Z,12.82
2023-05-24T22:01:03.688Z,12.48
2023-05-24T22:03:33.876Z,12.15
2023-05-24T22:06:03.702Z,12.82
2023-05-24T22:08:33.644Z,12.90
2023-05-24T22:11:03.294Z,13.75
2023-05-24T22:13:33.472Z,14.00
2023-05-24T22:16:03.460Z,14.15
2023-05-24T22:18:33.422Z,13.20
2023-05-24T22:21:03.701Z,14.23
2023-05-24T22:23:33.976Z,14.80
2023-05-24T22:26:03.776Z,15.40
2023-05-24T22:28:54.452Z,15.48
2023-05-24T22:31:25.497Z,15.32
2023-05-24T22:33:55.568Z,15.95
2023-05-24T22:36:25.562Z,15.15
2023-05-24T22:38:55.763Z,15.20
2023-05-24T22:41:26.069Z,15.48
2023-05-24T22:43:58.683Z,16.27
2023-05-24T22:46:28.579Z,16.65
2023-05-24T22:48:59.533Z,16.55
2023-05-24T22:51:30.108Z,15.07
2023-05-24T22:54:00.202Z,15.90
2023-05-24T22:56:30.054Z,16.48
2023-05-24T22:58:59.962Z,16.42
2023-05-24T23:01:29.812Z,16.00
2023-05-24T23:04:15.652Z,17.08
2023-05-24T23:06:53.732Z,16.75
2023-05-24T23:09:30.568Z,16.48
2023-05-24T23:12:00.536Z,17.00
2023-05-24T23:14:31.998Z,16.48
2023-05-24T23:17:03.999Z,18.23
2023-05-24T23:19:34.331Z,17.02
2023-05-24T23:22:04.914Z,16.30
2023-05-24T23:24:35.927Z,18.98
2023-05-24T23:27:07.777Z,18.05
2023-05-24T23:29:38.024Z,17.77
2023-05-24T23:32:09.250Z,15.70
2023-05-24T23:34:39.546Z,15.82
2023-05-24T23:37:10.316Z,17.05
2023-05-24T23:39:40.761Z,16.17
2023-05-24T23:42:10.712Z,17.50
2023-05-24T23:44:41.424Z,17.50
2023-05-24T23:47:11.664Z,16.58
2023-05-24T23:49:41.405Z,16.33
2023-05-24T23:52:12.166Z,16.23
2023-05-24T23:54:42.334Z,16.70
2023-05-24T23:57:12.091Z,17.38
2023-05-24T23:59:42.053Z,16.38
